메인 페이지
METAR-TAF:

METAR-TAF

공항 :

Tupelo Regional Airport (C.D. Lemons Field)

투펄로, 미시시피, 미국

위도: 34-16-05N, 경도: 088-46-12W, 고도: 106m

현재 날씨관측

예보는 28분 전, 14:06시(UTC)에 발표되었습니다.
남남동4kt
온도 10°C
습도 82%
기압 1021 hPa
시정: 16.1km
고도 900ft 상공 구름 보통
고도 3500ft 상공 구름 많음
고도 6500ft 상공 흐림

METAR: KTUP 191406Z 15004KT 10SM SCT009 BKN035 OVC065 10/07 A3014 RMK AO2 RAE05 P0000 T01000072 $

시각: 08:34 (14:34 UTC)

예보

예보는 29분 전, 14:05시(UTC)에 발표되었습니다.
예보 대상 시간: 19일 14시부터 20일 12시까지 (UTC)
3kt
시정: 10km
고도 800ft 상공 구름 많음
고도 3500ft 상공 흐림
시계 내 소나기
19일 1500시부터 (UTC)
서남서7kt
시정: 10km
고도 700ft 상공 흐림
시계 내 소나기
일시적
19일 20시부터 19일 24시까지 (UTC)
시정: 8.0km
고도 400ft 상공 흐림
약한소나기, 박무
20일 0000시부터 (UTC)
7kt
시정: 9.7km
고도 1000ft 상공 구름 많음
고도 2500ft 상공 흐림
박무, 시계 내 소나기
20일 0400시부터 (UTC)
북북서5kt
시정: 10km
고도 2500ft 상공 구름 보통
일시적
20일 10시부터 20일 12시까지 (UTC)
시정: 6.4km
박무

TAF: KTUP 191405Z 1914/2012 19003KT P6SM VCSH BKN008 OVC035 FM191500 25007KT P6SM VCSH OVC007 TEMPO 1920/1924 5SM -SHRA BR OVC004 FM200000 28007KT 6SM BR VCSH BKN010 OVC025 FM200400 33005KT P6SM SCT025 TEMPO 2010/2012 4SM BR

4,000개 이상의 공항 관측 자료 및 예보 (METAR 및 TAF 보고).

지도상에서 검색 가능한 기상관측소가 노란 점과 빨간 점으로 표시되어 있습니다.

기상관측소 명을 보려면 표시 위로 마우스를 이동하세요.

날씨 관측과 예보를 보려면 클릭하세요.

지도 변경 : 확대하려면 엑스 표시가 있는 녹색 버튼, 축소하려면 빼기 표시가 있는 녹색 버튼, 다음 페이지의 지도를 보려면 녹색 화살표를 클릭하세요.


METAR-TAF: